Time,TemperatureF,DewpointF,PressureIn,WindDirection,WindDirectionDegrees,WindSpeedMPH,WindSpeedGustMPH,Humidity,HourlyPrecipIn,Conditions,Clouds,dailyrainin,SoftwareType,DateUTC
2013-02-19 00:00:00,44.9,39.4,29.56,SW,232,8.2,26.0,81,0.03,,-RA,0.16,VWS V14.01,2013-02-19 05:00:00,
2013-02-19 00:01:00,44.9,39.4,29.56,SW,214,13.2,26.0,81,0.03,,-RA,0.16,VWS V14.01,2013-02-19 05:01:00,
2013-02-19 00:06:00,44.9,39.4,29.56,SW,236,14.2,23.0,81,0.03,,-RA,0.00,VWS V14.01,2013-02-19 05:06:00,
2013-02-19 00:11:00,44.8,39.3,29.55,South,191,12.2,23.0,81,0.03,,-RA,0.00,VWS V14.01,2013-02-19 05:11:00,
2013-02-19 00:16:00,44.8,39.7,29.55,WSW,250,12.2,18.0,82,0.03,,-RA,0.00,VWS V14.01,2013-02-19 05:16:00,
2013-02-19 00:21:00,44.8,39.7,29.55,SW,224,11.2,18.0,82,0.04,,-RA,0.01,VWS V14.01,2013-02-19 05:21:00,
2013-02-19 00:26:00,44.7,39.5,29.55,SSW,198,13.2,20.0,82,0.05,,-RA,0.02,VWS V14.01,2013-02-19 05:26:00,
2013-02-19 00:31:00,44.6,39.5,29.55,SW,215,16.2,20.0,82,0.05,,-RA,0.02,VWS V14.01,2013-02-19 05:31:00,
2013-02-19 00:36:00,44.5,39.4,29.54,SSW,213,9.2,17.0,82,0.05,,-RA,0.03,VWS V14.01,2013-02-19 05:36:00,
2013-02-19 00:41:00,44.4,39.6,29.54,South,182,7.2,17.0,83,0.06,,-RA,0.04,VWS V14.01,2013-02-19 05:41:00,
2013-02-19 00:46:00,44.4,39.6,29.54,SSE,159,9.2,18.0,83,0.05,,-RA,0.04,VWS V14.01,2013-02-19 05:46:00,
2013-02-19 00:51:00,44.3,39.5,29.54,SW,221,14.2,18.0,83,0.05,,-RA,0.04,VWS V14.01,2013-02-19 05:51:00,
2013-02-19 00:56:00,44.3,39.5,29.53,SE,134,15.2,22.0,83,0.05,,-RA,0.05,VWS V14.01,2013-02-19 05:56:00,
2013-02-19 01:01:00,44.3,39.5,29.53,South,189,4.2,22.0,83,0.06,,-RA,0.06,VWS V14.01,2013-02-19 06:01:00,
2013-02-19 01:06:00,44.3,39.8,29.53,WSW,248,14.2,19.0,84,0.06,,-RA,0.06,VWS V14.01,2013-02-19 06:06:00,
2013-02-19 01:11:00,44.3,39.8,29.52,South,172,9.2,19.0,84,0.07,,-RA,0.07,VWS V14.01,2013-02-19 06:11:00,
2013-02-19 01:16:00,44.3,39.8,29.52,SW,229,8.2,13.0,84,0.07,,-RA,0.07,VWS V14.01,2013-02-19 06:16:00,
2013-02-19 01:21:00,44.2,39.7,29.52,SSW,203,4.2,6.0,84,0.06,,-RA,0.07,VWS V14.01,2013-02-19 06:21:00,
2013-02-19 01:26:00,44.3,39.8,29.52,WSW,243,6.2,19.0,84,0.07,,-RA,0.08,VWS V14.01,2013-02-19 06:26:00,
2013-02-19 01:31:00,44.3,39.8,29.53,SW,232,13.2,13.2,84,0.06,,-RA,0.08,VWS V14.01,2013-02-19 06:31:00,
2013-02-19 01:36:00,42.6,37.2,29.56,West,271,21.2,31.0,81,0.09,,-RA,0.11,VWS V14.01,2013-02-19 06:36:00,
2013-02-19 01:41:00,40.7,35.3,29.57,West,280,18.2,21.0,81,0.07,,-RA,0.11,VWS V14.01,2013-02-19 06:41:00,
2013-02-19 01:46:00,38.8,33.2,29.57,West,264,22.2,25.0,80,0.07,,-RA,0.11,VWS V14.01,2013-02-19 06:46:00,
2013-02-19 01:51:00,36.8,31.2,29.58,West,268,17.2,21.0,80,0.08,,-RA,0.12,VWS V14.01,2013-02-19 06:51:00,
2013-02-19 01:56:00,35.6,30.4,29.60,West,269,15.2,28.0,81,0.08,,-RA,0.12,VWS V14.01,2013-02-19 06:56:00,
2013-02-19 02:01:00,35.0,29.8,29.60,WSW,247,19.2,19.2,81,0.06,,OVC007,0.12,VWS V14.01,2013-02-19 07:01:00,
2013-02-19 02:06:00,34.4,29.5,29.60,West,281,12.2,20.0,82,0.06,,OVC007,0.12,VWS V14.01,2013-02-19 07:06:00,
2013-02-19 02:12:00,34.1,29.2,29.60,West,261,19.2,19.2,82,0.05,,OVC007,0.12,VWS V14.01,2013-02-19 07:12:00,
2013-02-19 02:17:00,33.8,29.2,29.61,West,281,20.2,27.0,83,0.05,,OVC007,0.12,VWS V14.01,2013-02-19 07:17:00,
2013-02-19 02:22:00,33.5,28.9,29.60,West,276,21.2,21.2,83,0.05,,OVC007,0.12,VWS V14.01,2013-02-19 07:22:00,
2013-02-19 02:27:00,33.2,28.6,29.61,West,268,12.2,25.0,83,0.05,,OVC007,0.12,VWS V14.01,2013-02-19 07:27:00,
2013-02-19 02:32:00,33.0,28.4,29.62,West,279,16.2,17.0,83,0.04,,OVC007,0.12,VWS V14.01,2013-02-19 07:32:00,
2013-02-19 02:37:00,32.8,28.2,29.63,WNW,285,14.2,24.0,83,0.04,,OVC007,0.12,VWS V14.01,2013-02-19 07:37:00,
2013-02-19 02:42:00,32.8,28.2,29.63,West,272,16.2,16.2,83,0.01,,OVC007,0.12,VWS V14.01,2013-02-19 07:42:00,
2013-02-19 02:47:00,32.7,28.1,29.63,West,266,13.2,20.0,83,0.01,,OVC007,0.12,VWS V14.01,2013-02-19 07:47:00,
2013-02-19 02:52:00,32.7,28.1,29.63,WSW,246,18.2,18.2,83,0.00,,OVC007,0.12,VWS V14.01,2013-02-19 07:52:00,
2013-02-19 02:57:00,32.7,28.1,29.64,West,281,22.2,22.2,83,0.00,,OVC007,0.12,VWS V14.01,2013-02-19 07:57:00,
2013-02-19 03:02:00,32.3,27.7,29.65,West,263,16.2,25.0,83,0.00,,OVC009,0.12,VWS V14.01,2013-02-19 08:02:00,
2013-02-19 03:07:00,32.0,27.4,29.65,West,275,18.2,33.0,83,0.00,,OVC009,0.12,VWS V14.01,2013-02-19 08:07:00,
2013-02-19 03:12:00,31.7,26.8,29.65,West,274,10.2,24.0,82,0.00,,OVC009,0.12,VWS V14.01,2013-02-19 08:12:00,
2013-02-19 03:17:00,31.7,26.8,29.66,West,273,15.2,28.0,82,0.00,,OVC009,0.12,VWS V14.01,2013-02-19 08:17:00,
2013-02-19 03:22:00,31.6,26.8,29.66,West,279,19.2,19.2,82,0.00,,OVC009,0.12,VWS V14.01,2013-02-19 08:22:00,
2013-02-19 03:27:00,31.5,26.6,29.66,West,271,8.2,25.0,82,0.00,,OVC009,0.12,VWS V14.01,2013-02-19 08:27:00,
2013-02-19 03:32:00,31.5,26.9,29.66,West,267,13.2,17.0,83,0.00,,OVC009,0.12,VWS V14.01,2013-02-19 08:32:00,
2013-02-19 03:37:00,31.4,26.8,29.66,West,269,17.2,24.0,83,0.00,,OVC009,0.12,VWS V14.01,2013-02-19 08:37:00,
2013-02-19 03:42:00,31.2,26.6,29.66,West,271,21.2,21.2,83,0.00,,OVC009,0.12,VWS V14.01,2013-02-19 08:42:00,
2013-02-19 03:47:00,30.8,26.3,29.66,West,278,19.2,25.0,83,0.00,,OVC009,0.12,VWS V14.01,2013-02-19 08:47:00,
2013-02-19 03:52:00,30.4,25.9,29.66,WSW,248,22.2,26.0,83,0.00,,OVC009,0.12,VWS V14.01,2013-02-19 08:52:00,
2013-02-19 03:57:00,30.2,25.7,29.66,West,277,18.2,26.0,83,0.00,,OVC009,0.12,VWS V14.01,2013-02-19 08:57:00,
2013-02-19 04:02:00,29.8,25.3,29.66,West,278,21.2,22.0,83,0.00,,OVC009,0.12,VWS V14.01,2013-02-19 09:02:00,
2013-02-19 04:07:00,29.4,24.6,29.67,West,273,30.2,30.2,82,0.00,,OVC009,0.12,VWS V14.01,2013-02-19 09:07:00,
2013-02-19 04:12:00,28.9,23.8,29.67,West,271,26.2,26.2,81,0.00,,OVC009,0.12,VWS V14.01,2013-02-19 09:12:00,
2013-02-19 04:17:00,28.6,23.5,29.67,West,277,17.2,26.0,81,0.00,,OVC009,0.12,VWS V14.01,2013-02-19 09:17:00,
2013-02-19 04:22:00,28.4,23.3,29.67,WNW,286,28.2,28.2,81,0.00,,OVC009,0.12,VWS V14.01,2013-02-19 09:22:00,
2013-02-19 04:27:00,28.3,23.2,29.67,West,279,29.2,29.2,81,0.00,,OVC009,0.12,VWS V14.01,2013-02-19 09:27:00,
2013-02-19 04:32:00,28.1,22.7,29.68,WSW,252,22.2,22.2,80,0.00,,OVC009,0.12,VWS V14.01,2013-02-19 09:32:00,
2013-02-19 04:37:00,27.7,21.8,29.67,West,261,22.2,32.0,78,0.00,,OVC009,0.12,VWS V14.01,2013-02-19 09:37:00,
2013-02-19 04:42:00,27.5,21.5,29.69,West,273,18.2,25.0,78,0.00,,OVC009,0.12,VWS V14.01,2013-02-19 09:42:00,
2013-02-19 04:47:00,27.3,21.1,29.69,West,267,14.2,27.0,77,0.00,,OVC009,0.12,VWS V14.01,2013-02-19 09:47:00,
2013-02-19 04:52:00,26.9,20.4,29.70,WSW,254,26.2,26.2,76,0.00,,OVC009,0.12,VWS V14.01,2013-02-19 09:52:00,
2013-02-19 04:57:00,26.5,19.7,29.70,West,259,23.2,32.0,75,0.00,,OVC009,0.12,VWS V14.01,2013-02-19 09:57:00,
2013-02-19 05:02:00,26.1,19.6,29.70,West,271,19.2,24.0,76,0.00,,OVC014,0.12,VWS V14.01,2013-02-19 10:02:00,
2013-02-19 05:07:00,25.9,19.7,29.70,West,275,21.2,26.0,77,0.00,,OVC014,0.12,VWS V14.01,2013-02-19 10:07:00,
2013-02-19 05:12:00,25.9,19.7,29.71,West,265,14.2,15.0,77,0.00,,OVC014,0.12,VWS V14.01,2013-02-19 10:12:00,
2013-02-19 05:17:00,25.9,19.7,29.72,West,271,11.2,28.0,77,0.00,,OVC014,0.12,VWS V14.01,2013-02-19 10:17:00,
2013-02-19 05:22:00,25.9,19.7,29.71,West,263,20.2,26.0,77,0.00,,OVC014,0.12,VWS V14.01,2013-02-19 10:22:00,
2013-02-19 05:27:00,25.8,18.7,29.71,West,272,28.2,35.0,74,0.00,,OVC014,0.12,VWS V14.01,2013-02-19 10:27:00,
2013-02-19 05:32:00,25.8,18.4,29.72,West,262,25.2,34.0,73,0.00,,OVC014,0.12,VWS V14.01,2013-02-19 10:32:00,
2013-02-19 05:37:00,25.7,18.6,29.73,West,265,22.2,34.0,74,0.00,,OVC014,0.12,VWS V14.01,2013-02-19 10:37:00,
2013-02-19 05:42:00,25.8,18.7,29.73,West,271,13.2,21.0,74,0.00,,OVC014,0.12,VWS V14.01,2013-02-19 10:42:00,
2013-02-19 05:47:00,25.7,18.3,29.73,WNW,290,28.2,28.2,73,0.00,,OVC014,0.12,VWS V14.01,2013-02-19 10:47:00,
2013-02-19 05:52:00,25.7,18.9,29.73,WSW,257,17.2,22.0,75,0.00,,OVC014,0.12,VWS V14.01,2013-02-19 10:52:00,
2013-02-19 05:57:00,25.7,18.9,29.73,West,263,17.2,25.0,75,0.00,,OVC014,0.12,VWS V14.01,2013-02-19 10:57:00,
2013-02-19 06:02:00,25.7,18.6,29.74,West,273,17.2,26.0,74,0.00,,OVC017,0.12,VWS V14.01,2013-02-19 11:02:00,
2013-02-19 06:07:00,25.7,18.9,29.74,WNW,284,10.2,26.0,75,0.00,,OVC017,0.12,VWS V14.01,2013-02-19 11:07:00,
2013-02-19 06:12:00,25.6,18.8,29.74,West,266,12.2,16.0,75,0.00,,OVC017,0.12,VWS V14.01,2013-02-19 11:12:00,
2013-02-19 06:17:00,25.6,19.1,29.74,West,277,16.2,20.0,76,0.00,,OVC017,0.12,VWS V14.01,2013-02-19 11:17:00,
2013-02-19 06:22:00,25.7,19.2,29.75,West,264,15.2,18.0,76,0.00,,OVC017,0.12,VWS V14.01,2013-02-19 11:22:00,
2013-02-19 06:27:00,25.8,19.3,29.74,West,268,13.2,22.0,76,0.00,,OVC017,0.12,VWS V14.01,2013-02-19 11:27:00,
2013-02-19 06:33:00,25.9,19.4,29.74,WSW,257,18.2,20.0,76,0.00,,OVC017,0.12,VWS V14.01,2013-02-19 11:33:00,
2013-02-19 06:38:00,26.0,19.5,29.75,West,275,7.2,24.0,76,0.00,,OVC017,0.12,VWS V14.01,2013-02-19 11:38:00,
2013-02-19 06:43:00,25.7,18.9,29.75,West,280,13.2,22.0,75,0.00,,OVC017,0.12,VWS V14.01,2013-02-19 11:43:00,
2013-02-19 06:48:00,25.2,18.4,29.75,WNW,300,17.2,22.0,75,0.00,,OVC017,0.12,VWS V14.01,2013-02-19 11:48:00,
2013-02-19 06:53:00,24.6,17.8,29.76,WNW,283,6.2,13.0,75,0.00,,OVC017,0.12,VWS V14.01,2013-02-19 11:53:00,
2013-02-19 06:58:00,24.5,18.0,29.76,West,266,13.2,20.0,76,0.00,,OVC017,0.12,VWS V14.01,2013-02-19 11:58:00,
2013-02-19 07:03:00,24.3,17.8,29.76,WSW,252,19.2,22.0,76,0.00,,OVC017,0.12,VWS V14.01,2013-02-19 12:03:00,
2013-02-19 07:08:00,24.2,17.7,29.76,West,261,17.2,23.0,76,0.00,,OVC017,0.12,VWS V14.01,2013-02-19 12:08:00,
2013-02-19 07:13:00,24.2,17.7,29.76,West,281,13.2,21.0,76,0.00,,OVC017,0.12,VWS V14.01,2013-02-19 12:13:00,
2013-02-19 07:18:00,24.2,17.7,29.76,West,265,13.2,21.0,76,0.00,,OVC017,0.12,VWS V14.01,2013-02-19 12:18:00,
2013-02-19 07:23:00,24.3,18.1,29.76,WSW,250,21.2,23.0,77,0.00,,OVC017,0.12,VWS V14.01,2013-02-19 12:23:00,
2013-02-19 07:28:00,24.5,17.4,29.76,West,265,27.2,31.0,74,0.00,,OVC017,0.12,VWS V14.01,2013-02-19 12:28:00,
2013-02-19 07:33:00,24.5,16.8,29.77,West,259,21.2,29.0,72,0.00,,OVC017,0.12,VWS V14.01,2013-02-19 12:33:00,
2013-02-19 07:38:00,24.3,16.3,29.77,West,275,14.2,29.0,71,0.00,,OVC017,0.12,VWS V14.01,2013-02-19 12:38:00,
2013-02-19 07:43:00,24.2,16.5,29.77,WSW,246,25.2,28.0,72,0.00,,OVC017,0.12,VWS V14.01,2013-02-19 12:43:00,
2013-02-19 07:48:00,24.2,16.5,29.78,West,269,16.2,31.0,72,0.00,,OVC017,0.12,VWS V14.01,2013-02-19 12:48:00,
2013-02-19 07:53:00,24.1,16.7,29.78,West,274,13.2,20.0,73,0.00,,OVC017,0.12,VWS V14.01,2013-02-19 12:53:00,
2013-02-19 07:58:00,24.0,16.6,29.78,WSW,251,27.2,27.2,73,0.00,,OVC017,0.12,VWS V14.01,2013-02-19 12:58:00,
2013-02-19 08:03:00,24.0,16.3,29.78,West,275,15.2,26.0,72,0.00,,OVC026,0.12,VWS V14.01,2013-02-19 13:03:00,
2013-02-19 08:08:00,24.0,16.3,29.78,West,279,19.2,28.0,72,0.00,,OVC026,0.12,VWS V14.01,2013-02-19 13:08:00,
2013-02-19 08:13:00,23.9,16.5,29.79,West,259,14.2,20.0,73,0.00,,OVC026,0.12,VWS V14.01,2013-02-19 13:13:00,
2013-02-19 08:18:00,23.9,16.2,29.79,WSW,256,25.2,25.2,72,0.00,,OVC026,0.12,VWS V14.01,2013-02-19 13:18:00,
2013-02-19 08:23:00,23.7,16.0,29.80,West,281,21.2,30.0,72,0.00,,OVC026,0.12,VWS V14.01,2013-02-19 13:23:00,
2013-02-19 08:28:00,23.5,15.8,29.79,West,261,17.2,30.0,72,0.00,,OVC026,0.12,VWS V14.01,2013-02-19 13:28:00,
2013-02-19 08:33:00,23.4,16.0,29.80,West,271,10.2,20.0,73,0.00,,OVC026,0.12,VWS V14.01,2013-02-19 13:33:00,
2013-02-19 08:38:00,23.3,15.9,29.80,West,267,17.2,26.0,73,0.00,,OVC026,0.12,VWS V14.01,2013-02-19 13:38:00,
2013-02-19 08:43:00,23.3,15.9,29.80,WSW,250,23.2,23.2,73,0.00,,OVC026,0.12,VWS V14.01,2013-02-19 13:43:00,
2013-02-19 08:48:00,23.2,15.5,29.80,WSW,245,21.2,27.0,72,0.00,,OVC026,0.12,VWS V14.01,2013-02-19 13:48:00,
2013-02-19 08:53:00,23.3,15.6,29.80,West,267,16.2,22.0,72,0.00,,OVC026,0.12,VWS V14.01,2013-02-19 13:53:00,
2013-02-19 08:58:00,23.3,15.9,29.80,WSW,255,17.2,29.0,73,0.00,,OVC026,0.12,VWS V14.01,2013-02-19 13:58:00,
2013-02-19 09:03:00,23.3,16.2,29.81,WSW,253,22.2,22.2,74,0.00,,,0.12,VWS V14.01,2013-02-19 14:03:00,
2013-02-19 09:08:00,23.2,16.2,29.81,West,262,19.2,24.0,74,0.00,,,0.12,VWS V14.01,2013-02-19 14:08:00,
2013-02-19 09:13:00,23.1,16.1,29.81,WSW,254,19.2,23.0,74,0.00,,,0.12,VWS V14.01,2013-02-19 14:13:00,
2013-02-19 09:18:00,23.1,16.4,29.81,WSW,257,19.2,23.0,75,0.00,,,0.12,VWS V14.01,2013-02-19 14:18:00,
2013-02-19 09:23:00,23.0,16.6,29.81,WSW,257,17.2,18.0,76,0.00,,,0.12,VWS V14.01,2013-02-19 14:23:00,
2013-02-19 09:28:00,23.0,16.9,29.81,West,268,11.2,21.0,77,0.00,,,0.12,VWS V14.01,2013-02-19 14:28:00,
2013-02-19 09:33:00,22.8,16.7,29.82,West,272,17.2,22.0,77,0.00,,,0.12,VWS V14.01,2013-02-19 14:33:00,
2013-02-19 09:38:00,22.1,16.3,29.82,West,261,12.2,25.0,78,0.00,,,0.12,VWS V14.01,2013-02-19 14:38:00,
2013-02-19 09:44:00,21.9,16.4,29.82,West,269,20.2,20.2,79,0.00,,,0.12,VWS V14.01,2013-02-19 14:44:00,
2013-02-19 09:49:00,21.9,16.4,29.83,West,265,14.2,23.0,79,0.00,,,0.12,VWS V14.01,2013-02-19 14:49:00,
2013-02-19 09:54:00,21.8,16.0,29.83,WNW,284,19.2,25.0,78,0.00,,,0.12,VWS V14.01,2013-02-19 14:54:00,
2013-02-19 09:59:00,21.5,15.4,29.83,West,265,14.2,29.0,77,0.00,,,0.12,VWS V14.01,2013-02-19 14:59:00,
2013-02-19 10:03:00,21.4,15.0,29.83,West,259,22.2,23.0,76,0.00,,,0.12,VWS V14.01,2013-02-19 15:03:00,
2013-02-19 10:08:00,21.4,15.0,29.83,West,260,17.2,23.0,76,0.00,,,0.12,VWS V14.01,2013-02-19 15:08:00,
2013-02-19 10:13:00,21.4,15.0,29.83,West,275,16.2,23.0,76,0.00,,,0.12,VWS V14.01,2013-02-19 15:13:00,
2013-02-19 10:19:00,21.5,14.8,29.83,West,263,19.2,24.0,75,0.00,,,0.12,VWS V14.01,2013-02-19 15:19:00,
2013-02-19 10:24:00,21.8,14.5,29.83,West,269,15.2,29.0,73,0.00,,,0.12,VWS V14.01,2013-02-19 15:24:00,
2013-02-19 10:29:00,22.0,14.4,29.83,West,281,17.2,33.0,72,0.00,,,0.12,VWS V14.01,2013-02-19 15:29:00,
2013-02-19 10:34:00,22.3,14.7,29.83,West,261,20.2,24.0,72,0.00,,,0.12,VWS V14.01,2013-02-19 15:34:00,
2013-02-19 10:39:00,22.6,14.9,29.83,West,261,19.2,28.0,72,0.00,,,0.12,VWS V14.01,2013-02-19 15:39:00,
2013-02-19 10:44:00,22.6,14.9,29.84,West,279,22.2,22.2,72,0.00,,,0.12,VWS V14.01,2013-02-19 15:44:00,
2013-02-19 10:49:00,22.3,15.0,29.84,West,266,22.2,26.0,73,0.00,,,0.12,VWS V14.01,2013-02-19 15:49:00,
2013-02-19 10:54:00,22.1,14.8,29.84,West,268,17.2,21.0,73,0.00,,,0.12,VWS V14.01,2013-02-19 15:54:00,
2013-02-19 10:59:00,22.1,15.1,29.84,WSW,254,24.2,25.0,74,0.00,,,0.12,VWS V14.01,2013-02-19 15:59:00,
2013-02-19 11:04:00,22.0,15.0,29.84,West,272,14.2,24.0,74,0.00,,,0.12,VWS V14.01,2013-02-19 16:04:00,
2013-02-19 11:09:00,21.9,15.2,29.85,West,271,22.2,24.0,75,0.00,,,0.12,VWS V14.01,2013-02-19 16:09:00,
2013-02-19 11:14:00,21.7,14.7,29.85,West,269,20.2,25.0,74,0.00,,,0.12,VWS V14.01,2013-02-19 16:14:00,
2013-02-19 11:19:00,21.7,15.0,29.85,West,273,18.2,25.0,75,0.00,,,0.12,VWS V14.01,2013-02-19 16:19:00,
2013-02-19 11:24:00,21.6,14.9,29.86,West,279,19.2,23.0,75,0.00,,,0.12,VWS V14.01,2013-02-19 16:24:00,
2013-02-19 11:29:00,21.5,14.5,29.86,West,272,13.2,26.0,74,0.00,,,0.12,VWS V14.01,2013-02-19 16:29:00,
2013-02-19 11:34:00,21.9,14.9,29.86,WSW,258,10.2,22.0,74,0.00,,,0.12,VWS V14.01,2013-02-19 16:34:00,
2013-02-19 11:39:00,22.3,15.0,29.85,West,268,16.2,22.0,73,0.00,,,0.12,VWS V14.01,2013-02-19 16:39:00,
2013-02-19 11:44:00,22.5,14.9,29.85,WSW,257,10.2,22.0,72,0.00,,,0.12,VWS V14.01,2013-02-19 16:44:00,
2013-02-19 11:49:00,22.6,15.3,29.85,West,266,16.2,22.0,73,0.00,,,0.12,VWS V14.01,2013-02-19 16:49:00,
2013-02-19 11:54:00,22.7,15.4,29.85,WSW,253,17.2,23.0,73,0.00,,,0.12,VWS V14.01,2013-02-19 16:54:00,
2013-02-19 11:59:00,22.6,15.6,29.85,West,261,19.2,26.0,74,0.00,,,0.12,VWS V14.01,2013-02-19 16:59:00,
2013-02-19 12:04:00,22.7,15.7,29.85,WSW,255,17.2,26.0,74,0.00,,,0.12,VWS V14.01,2013-02-19 17:04:00,
2013-02-19 12:09:00,22.5,15.2,29.86,West,267,24.2,27.0,73,0.00,,,0.12,VWS V14.01,2013-02-19 17:09:00,
2013-02-19 12:14:00,22.2,13.9,29.86,West,265,21.2,33.0,70,0.00,,,0.12,VWS V14.01,2013-02-19 17:14:00,
2013-02-19 12:19:00,22.3,14.3,29.86,WSW,246,39.2,39.2,71,0.00,,,0.12,VWS V14.01,2013-02-19 17:19:00,
2013-02-19 12:24:00,22.2,14.2,29.86,West,264,11.2,31.0,71,0.00,,,0.12,VWS V14.01,2013-02-19 17:24:00,
2013-02-19 12:29:00,22.1,14.1,29.87,West,263,12.2,35.0,71,0.00,,,0.12,VWS V14.01,2013-02-19 17:29:00,
2013-02-19 12:34:00,21.9,14.0,29.87,West,281,22.2,29.0,71,0.00,,,0.12,VWS V14.01,2013-02-19 17:34:00,
2013-02-19 12:39:00,21.4,13.5,29.87,West,260,24.2,30.0,71,0.00,,,0.12,VWS V14.01,2013-02-19 17:39:00,
2013-02-19 12:44:00,21.1,13.5,29.87,WNW,291,14.2,24.0,72,0.00,,,0.12,VWS V14.01,2013-02-19 17:44:00,
2013-02-19 12:49:00,20.7,13.1,29.88,West,279,21.2,28.0,72,0.00,,,0.12,VWS V14.01,2013-02-19 17:49:00,
2013-02-19 12:54:00,20.4,13.1,29.88,West,274,17.2,28.0,73,0.00,,,0.12,VWS V14.01,2013-02-19 17:54:00,
2013-02-19 12:59:00,20.3,13.4,29.88,West,279,15.2,28.0,74,0.00,,,0.12,VWS V14.01,2013-02-19 17:59:00,
2013-02-19 13:04:00,19.8,12.6,29.89,West,280,21.2,27.0,73,0.00,,,0.12,VWS V14.01,2013-02-19 18:04:00,
2013-02-19 13:09:00,19.4,11.6,29.90,West,276,20.2,27.0,71,0.00,,,0.12,VWS V14.01,2013-02-19 18:09:00,
2013-02-19 13:14:00,19.2,11.4,29.90,WSW,257,15.2,23.0,71,0.00,,,0.12,VWS V14.01,2013-02-19 18:14:00,
2013-02-19 13:19:00,19.4,11.9,29.90,WSW,254,23.2,25.0,72,0.00,,,0.12,VWS V14.01,2013-02-19 18:19:00,
2013-02-19 13:24:00,19.4,11.9,29.89,West,265,12.2,25.0,72,0.00,,,0.12,VWS V14.01,2013-02-19 18:24:00,
2013-02-19 13:29:00,19.4,12.2,29.90,West,265,21.2,27.0,73,0.00,,,0.12,VWS V14.01,2013-02-19 18:29:00,
2013-02-19 13:34:00,19.5,12.0,29.90,West,263,16.2,26.0,72,0.00,,,0.12,VWS V14.01,2013-02-19 18:34:00,
2013-02-19 13:39:00,19.5,12.3,29.90,West,260,16.2,27.0,73,0.00,,,0.12,VWS V14.01,2013-02-19 18:39:00,
2013-02-19 13:44:00,19.6,12.4,29.90,West,277,15.2,27.0,73,0.00,,,0.12,VWS V14.01,2013-02-19 18:44:00,
2013-02-19 13:49:00,19.7,12.5,29.90,WNW,289,16.2,27.0,73,0.00,,,0.12,VWS V14.01,2013-02-19 18:49:00,
2013-02-19 13:54:00,19.7,12.1,29.90,West,277,23.2,28.0,72,0.00,,,0.12,VWS V14.01,2013-02-19 18:54:00,
2013-02-19 13:59:00,19.8,12.2,29.90,West,271,12.2,28.0,72,0.00,,,0.12,VWS V14.01,2013-02-19 18:59:00,
2013-02-19 14:04:00,19.8,12.2,29.90,West,271,15.2,25.0,72,0.00,,,0.12,VWS V14.01,2013-02-19 19:04:00,
2013-02-19 14:09:00,19.8,12.6,29.90,WSW,253,19.2,25.0,73,0.00,,,0.12,VWS V14.01,2013-02-19 19:09:00,
2013-02-19 14:14:00,19.6,12.7,29.90,West,263,21.2,28.0,74,0.00,,,0.12,VWS V14.01,2013-02-19 19:14:00,
2013-02-19 14:19:00,19.5,12.3,29.91,West,265,26.2,28.0,73,0.00,,,0.12,VWS V14.01,2013-02-19 19:19:00,
2013-02-19 14:24:00,19.5,11.6,29.91,West,267,20.2,27.0,71,0.00,,,0.12,VWS V14.01,2013-02-19 19:24:00,
2013-02-19 14:29:00,19.7,12.1,29.92,West,281,14.2,27.0,72,0.00,,,0.12,VWS V14.01,2013-02-19 19:29:00,
2013-02-19 14:34:00,19.9,12.0,29.92,West,277,14.2,26.0,71,0.00,,,0.12,VWS V14.01,2013-02-19 19:34:00,
2013-02-19 14:39:00,20.0,12.4,29.92,WNW,298,20.2,26.0,72,0.00,,,0.12,VWS V14.01,2013-02-19 19:39:00,
2013-02-19 14:44:00,20.1,12.5,29.92,West,267,9.2,25.0,72,0.00,,,0.12,VWS V14.01,2013-02-19 19:44:00,
2013-02-19 14:49:00,20.3,13.0,29.92,WNW,284,23.2,25.0,73,0.00,,,0.12,VWS V14.01,2013-02-19 19:49:00,
2013-02-19 14:54:00,20.3,13.0,29.92,West,279,16.2,21.0,73,0.00,,,0.12,VWS V14.01,2013-02-19 19:54:00,
2013-02-19 14:59:00,20.3,13.0,29.92,West,264,17.2,25.0,73,0.00,,,0.12,VWS V14.01,2013-02-19 19:59:00,
2013-02-19 15:04:00,20.3,13.4,29.93,West,275,9.2,20.0,74,0.00,,,0.12,VWS V14.01,2013-02-19 20:04:00,
2013-02-19 15:10:00,20.3,13.4,29.93,West,275,19.2,21.0,74,0.00,,,0.12,VWS V14.01,2013-02-19 20:10:00,
2013-02-19 15:15:00,20.3,13.0,29.93,WNW,282,14.2,22.0,73,0.00,,,0.12,VWS V14.01,2013-02-19 20:15:00,
2013-02-19 15:20:00,20.2,13.2,29.93,WSW,255,20.2,24.0,74,0.00,,,0.12,VWS V14.01,2013-02-19 20:20:00,
2013-02-19 15:25:00,20.0,13.4,29.94,West,274,11.2,24.0,75,0.00,,,0.12,VWS V14.01,2013-02-19 20:25:00,
2013-02-19 15:30:00,20.0,13.4,29.94,West,275,16.2,26.0,75,0.00,,,0.12,VWS V14.01,2013-02-19 20:30:00,
2013-02-19 15:35:00,19.6,13.3,29.95,WSW,255,21.2,24.0,76,0.00,,,0.12,VWS V14.01,2013-02-19 20:35:00,
2013-02-19 15:40:00,19.3,12.7,29.95,West,272,16.2,26.0,75,0.00,,,0.12,VWS V14.01,2013-02-19 20:40:00,
2013-02-19 15:45:00,19.0,12.1,29.95,West,261,24.2,26.0,74,0.00,,,0.12,VWS V14.01,2013-02-19 20:45:00,
2013-02-19 15:50:00,18.8,11.6,29.96,West,275,16.2,31.0,73,0.00,,,0.12,VWS V14.01,2013-02-19 20:50:00,
2013-02-19 15:55:00,18.8,11.3,29.96,West,277,15.2,29.0,72,0.00,,,0.12,VWS V14.01,2013-02-19 20:55:00,
2013-02-19 16:00:00,18.6,10.8,29.96,West,273,20.2,29.0,71,0.00,,,0.12,VWS V14.01,2013-02-19 21:00:00,
2013-02-19 16:05:00,18.6,10.8,29.97,WNW,302,14.2,21.0,71,0.00,,,0.12,VWS V14.01,2013-02-19 21:05:00,
2013-02-19 16:10:00,18.6,10.8,29.98,West,278,14.2,21.0,71,0.00,,,0.12,VWS V14.01,2013-02-19 21:10:00,
2013-02-19 16:15:00,18.7,11.2,29.97,WNW,286,14.2,20.0,72,0.00,,,0.12,VWS V14.01,2013-02-19 21:15:00,
2013-02-19 16:20:00,18.6,11.1,29.98,West,280,20.2,24.0,72,0.00,,,0.12,VWS V14.01,2013-02-19 21:20:00,
2013-02-19 16:25:00,18.5,11.0,29.98,West,271,18.2,26.0,72,0.00,,,0.12,VWS V14.01,2013-02-19 21:25:00,
2013-02-19 16:30:00,18.6,10.8,29.99,West,273,18.2,26.0,71,0.00,,,0.12,VWS V14.01,2013-02-19 21:30:00,
2013-02-19 16:35:00,18.5,10.4,29.98,West,260,23.2,23.2,70,0.00,,,0.12,VWS V14.01,2013-02-19 21:35:00,
2013-02-19 16:40:00,18.4,10.3,29.99,West,276,18.2,22.0,70,0.00,,,0.12,VWS V14.01,2013-02-19 21:40:00,
2013-02-19 16:45:00,18.3,10.5,29.99,West,278,22.2,22.2,71,0.00,,,0.12,VWS V14.01,2013-02-19 21:45:00,
2013-02-19 16:50:00,18.3,10.5,30.00,West,271,19.2,27.0,71,0.00,,,0.12,VWS V14.01,2013-02-19 21:50:00,
2013-02-19 16:55:00,18.3,10.8,30.00,West,281,17.2,26.0,72,0.00,,,0.12,VWS V14.01,2013-02-19 21:55:00,
2013-02-19 17:00:00,18.4,10.6,30.00,WNW,284,12.2,27.0,71,0.00,,,0.12,VWS V14.01,2013-02-19 22:00:00,
2013-02-19 17:05:00,18.4,10.6,30.00,West,273,16.2,25.0,71,0.00,,,0.12,VWS V14.01,2013-02-19 22:05:00,
2013-02-19 17:10:00,18.3,10.2,30.01,West,275,17.2,25.0,70,0.00,,,0.12,VWS V14.01,2013-02-19 22:10:00,
2013-02-19 17:15:00,18.2,10.1,30.01,West,281,22.2,23.0,70,0.00,,,0.12,VWS V14.01,2013-02-19 22:15:00,
2013-02-19 17:20:00,18.1,9.7,30.01,West,279,17.2,23.0,69,0.00,,,0.12,VWS V14.01,2013-02-19 22:20:00,
2013-02-19 17:25:00,18.1,10.3,30.01,West,273,13.2,20.0,71,0.00,,,0.12,VWS V14.01,2013-02-19 22:25:00,
2013-02-19 17:30:00,18.1,10.3,30.01,West,261,21.2,23.0,71,0.00,,,0.12,VWS V14.01,2013-02-19 22:30:00,
2013-02-19 17:35:00,18.1,10.3,30.02,West,281,24.2,25.0,71,0.00,,,0.12,VWS V14.01,2013-02-19 22:35:00,
2013-02-19 17:40:00,18.1,10.3,30.02,West,276,11.2,25.0,71,0.00,,,0.12,VWS V14.01,2013-02-19 22:40:00,
2013-02-19 17:45:00,18.1,10.3,30.03,West,273,21.2,26.0,71,0.00,,,0.12,VWS V14.01,2013-02-19 22:45:00,
2013-02-19 17:50:00,18.0,10.2,30.03,West,277,16.2,26.0,71,0.00,,,0.12,VWS V14.01,2013-02-19 22:50:00,
2013-02-19 17:55:00,17.9,10.1,30.03,WNW,284,15.2,22.0,71,0.00,,,0.12,VWS V14.01,2013-02-19 22:55:00,
2013-02-19 18:00:00,17.9,10.1,30.04,NW,310,14.2,24.0,71,0.00,,,0.12,VWS V14.01,2013-02-19 23:00:00,
2013-02-19 18:05:00,17.8,10.0,30.04,West,281,18.2,24.0,71,0.00,,,0.12,VWS V14.01,2013-02-19 23:05:00,
2013-02-19 18:10:00,17.8,10.0,30.04,West,277,16.2,26.0,71,0.00,,,0.12,VWS V14.01,2013-02-19 23:10:00,
2013-02-19 18:15:00,17.8,10.0,30.04,West,277,15.2,26.0,71,0.00,,,0.12,VWS V14.01,2013-02-19 23:15:00,
2013-02-19 18:20:00,17.7,10.2,30.05,West,263,11.2,26.0,72,0.00,,,0.12,VWS V14.01,2013-02-19 23:20:00,
2013-02-19 18:25:00,17.8,10.3,30.05,West,277,8.2,17.0,72,0.00,,,0.12,VWS V14.01,2013-02-19 23:25:00,
2013-02-19 18:30:00,17.9,10.7,30.06,WNW,284,12.2,19.0,73,0.00,,,0.12,VWS V14.01,2013-02-19 23:30:00,
2013-02-19 18:35:00,17.9,11.0,30.06,West,275,13.2,19.0,74,0.00,,,0.12,VWS V14.01,2013-02-19 23:35:00,
2013-02-19 18:40:00,17.8,11.2,30.06,West,262,24.2,26.0,75,0.00,,,0.12,VWS V14.01,2013-02-19 23:40:00,
2013-02-19 18:45:00,17.8,10.6,30.06,West,275,15.2,22.0,73,0.00,,,0.12,VWS V14.01,2013-02-19 23:45:00,
2013-02-19 18:50:00,18.0,9.9,30.07,West,275,14.2,28.0,70,0.00,,,0.12,VWS V14.01,2013-02-19 23:50:00,
2013-02-19 18:55:00,18.0,9.9,30.07,West,276,18.2,22.0,70,0.00,,,0.12,VWS V14.01,2013-02-19 23:55:00,
2013-02-19 19:00:00,18.0,9.9,30.07,West,280,17.2,24.0,70,0.00,,,0.12,VWS V14.01,2013-02-20 00:00:00,
2013-02-19 19:06:00,18.0,10.2,30.07,WNW,292,13.2,20.0,71,0.00,,,0.12,VWS V14.01,2013-02-20 00:06:00,
2013-02-19 19:11:00,18.1,10.3,30.07,WNW,294,10.2,20.0,71,0.00,,,0.12,VWS V14.01,2013-02-20 00:11:00,
2013-02-19 19:16:00,18.1,10.6,30.07,West,281,15.2,19.0,72,0.00,,,0.12,VWS V14.01,2013-02-20 00:16:00,
2013-02-19 19:21:00,18.1,10.6,30.07,WNW,284,9.2,19.0,72,0.00,,,0.12,VWS V14.01,2013-02-20 00:21:00,
2013-02-19 19:26:00,18.1,10.6,30.07,WNW,288,16.2,19.0,72,0.00,,,0.12,VWS V14.01,2013-02-20 00:26:00,
2013-02-19 19:31:00,18.2,11.0,30.07,West,279,13.2,19.0,73,0.00,,,0.12,VWS V14.01,2013-02-20 00:31:00,
2013-02-19 19:36:00,18.3,11.1,30.07,WNW,286,5.2,17.0,73,0.00,,,0.12,VWS V14.01,2013-02-20 00:36:00,
2013-02-19 19:41:00,18.4,11.5,30.07,WNW,287,21.2,21.2,74,0.00,,,0.12,VWS V14.01,2013-02-20 00:41:00,
2013-02-19 19:46:00,18.5,11.6,30.07,WNW,286,5.2,15.0,74,0.00,,,0.12,VWS V14.01,2013-02-20 00:46:00,
2013-02-19 19:51:00,18.6,12.0,30.07,West,274,11.2,15.0,75,0.00,,,0.12,VWS V14.01,2013-02-20 00:51:00,
2013-02-19 19:56:00,18.6,12.0,30.07,West,279,10.2,15.0,75,0.00,,,0.12,VWS V14.01,2013-02-20 00:56:00,
2013-02-19 20:01:00,18.6,12.0,30.08,West,277,6.2,15.0,75,0.00,,,0.12,VWS V14.01,2013-02-20 01:01:00,
2013-02-19 20:06:00,18.6,12.0,30.08,NW,313,7.2,14.0,75,0.00,,,0.12,VWS V14.01,2013-02-20 01:06:00,
2013-02-19 20:11:00,18.7,12.4,30.08,WNW,287,8.2,14.0,76,0.00,,,0.12,VWS V14.01,2013-02-20 01:11:00,
2013-02-19 20:16:00,18.7,12.4,30.08,West,280,12.2,19.0,76,0.00,,,0.12,VWS V14.01,2013-02-20 01:16:00,
2013-02-19 20:21:00,18.8,12.2,30.08,WNW,290,17.2,19.0,75,0.00,,,0.12,VWS V14.01,2013-02-20 01:21:00,
2013-02-19 20:26:00,18.9,12.3,30.08,West,274,18.2,20.0,75,0.00,,,0.12,VWS V14.01,2013-02-20 01:26:00,
2013-02-19 20:31:00,19.0,12.1,30.08,West,261,16.2,20.0,74,0.00,,,0.12,VWS V14.01,2013-02-20 01:31:00,
2013-02-19 20:36:00,18.9,12.0,30.08,WNW,296,12.2,18.0,74,0.00,,,0.12,VWS V14.01,2013-02-20 01:36:00,
2013-02-19 20:41:00,18.8,11.9,30.09,WNW,287,12.2,19.0,74,0.00,,,0.12,VWS V14.01,2013-02-20 01:41:00,
2013-02-19 20:46:00,18.8,11.9,30.09,WNW,283,8.2,15.0,74,0.00,,,0.12,VWS V14.01,2013-02-20 01:46:00,
2013-02-19 20:51:00,18.8,11.9,30.09,WNW,296,14.2,21.0,74,0.00,,,0.12,VWS V14.01,2013-02-20 01:51:00,
2013-02-19 20:56:00,18.8,11.9,30.09,West,273,11.2,18.0,74,0.00,,,0.12,VWS V14.01,2013-02-20 01:56:00,
2013-02-19 21:01:00,18.7,12.1,30.09,WNW,295,15.2,20.0,75,0.00,,,0.12,VWS V14.01,2013-02-20 02:01:00,
2013-02-19 21:06:00,18.7,11.8,30.09,West,275,14.2,20.0,74,0.00,,,0.12,VWS V14.01,2013-02-20 02:06:00,
2013-02-19 21:11:00,18.7,11.8,30.10,WNW,284,15.2,20.0,74,0.00,,,0.12,VWS V14.01,2013-02-20 02:11:00,
2013-02-19 21:16:00,18.7,12.1,30.10,West,272,10.2,18.0,75,0.00,,,0.12,VWS V14.01,2013-02-20 02:16:00,
2013-02-19 21:21:00,18.6,12.0,30.10,WNW,287,7.2,19.0,75,0.00,,,0.12,VWS V14.01,2013-02-20 02:21:00,
2013-02-19 21:26:00,18.6,12.3,30.10,WNW,299,3.2,15.0,76,0.00,,,0.12,VWS V14.01,2013-02-20 02:26:00,
2013-02-19 21:31:00,18.5,12.2,30.10,WNW,303,10.2,10.2,76,0.00,,,0.12,VWS V14.01,2013-02-20 02:31:00,
2013-02-19 21:36:00,18.5,11.9,30.10,WNW,283,9.2,15.0,75,0.00,,,0.12,VWS V14.01,2013-02-20 02:36:00,
2013-02-19 21:41:00,18.6,12.0,30.10,West,276,4.2,4.2,75,0.00,,,0.12,VWS V14.01,2013-02-20 02:41:00,
2013-02-19 21:46:00,18.6,12.0,30.10,WNW,286,5.2,11.0,75,0.00,,,0.12,VWS V14.01,2013-02-20 02:46:00,
2013-02-19 21:51:00,18.7,11.8,30.11,West,279,6.2,6.2,74,0.00,,,0.12,VWS V14.01,2013-02-20 02:51:00,
2013-02-19 21:56:00,18.8,11.6,30.11,West,279,4.2,15.0,73,0.00,,,0.12,VWS V14.01,2013-02-20 02:56:00,
2013-02-19 22:01:00,18.9,11.7,30.11,West,278,8.2,8.2,73,0.00,,,0.12,VWS V14.01,2013-02-20 03:01:00,
2013-02-19 22:07:00,19.0,11.8,30.11,WNW,283,11.2,14.0,73,0.00,,,0.12,VWS V14.01,2013-02-20 03:07:00,
2013-02-19 22:12:00,18.9,11.7,30.11,West,268,10.2,10.2,73,0.00,,,0.12,VWS V14.01,2013-02-20 03:12:00,
2013-02-19 22:17:00,18.9,11.7,30.11,WNW,303,10.2,14.0,73,0.00,,,0.12,VWS V14.01,2013-02-20 03:17:00,
2013-02-19 22:22:00,18.9,11.7,30.11,West,279,11.2,11.2,73,0.00,,,0.12,VWS V14.01,2013-02-20 03:22:00,
2013-02-19 22:27:00,18.9,11.7,30.12,WNW,286,14.2,16.0,73,0.00,,,0.12,VWS V14.01,2013-02-20 03:27:00,
2013-02-19 22:32:00,18.9,11.7,30.12,WNW,285,8.2,9.0,73,0.00,,,0.12,VWS V14.01,2013-02-20 03:32:00,
2013-02-19 22:37:00,18.8,11.6,30.11,WNW,290,7.2,14.0,73,0.00,,,0.12,VWS V14.01,2013-02-20 03:37:00,
2013-02-19 22:42:00,18.8,11.3,30.12,WNW,282,8.2,14.0,72,0.00,,,0.12,VWS V14.01,2013-02-20 03:42:00,
2013-02-19 22:47:00,18.8,11.3,30.11,WNW,296,7.2,15.0,72,0.00,,,0.12,VWS V14.01,2013-02-20 03:47:00,
2013-02-19 22:52:00,18.7,11.5,30.12,NNW,329,7.2,12.0,73,0.00,,,0.12,VWS V14.01,2013-02-20 03:52:00,
2013-02-19 22:57:00,18.7,11.8,30.12,WNW,294,5.2,12.0,74,0.00,,,0.12,VWS V14.01,2013-02-20 03:57:00,
2013-02-19 23:02:00,18.5,11.9,30.12,NW,306,4.2,10.0,75,0.00,,,0.12,VWS V14.01,2013-02-20 04:02:00,
2013-02-19 23:07:00,18.2,11.9,30.12,WNW,288,6.2,14.0,76,0.00,,,0.12,VWS V14.01,2013-02-20 04:07:00,
2013-02-19 23:12:00,18.0,11.7,30.12,WNW,286,9.2,12.0,76,0.00,,,0.12,VWS V14.01,2013-02-20 04:12:00,
2013-02-19 23:17:00,17.9,11.6,30.12,NW,324,8.2,14.0,76,0.00,,,0.12,VWS V14.01,2013-02-20 04:17:00,
2013-02-19 23:22:00,17.8,11.5,30.12,West,279,5.2,6.0,76,0.00,,,0.12,VWS V14.01,2013-02-20 04:22:00,
2013-02-19 23:27:00,17.9,11.6,30.12,NW,306,11.2,11.2,76,0.00,,,0.12,VWS V14.01,2013-02-20 04:27:00,
2013-02-19 23:32:00,17.7,11.7,30.13,WNW,303,6.2,14.0,77,0.00,,,0.12,VWS V14.01,2013-02-20 04:32:00,
2013-02-19 23:37:00,17.6,11.3,30.13,NW,309,3.2,14.0,76,0.00,,,0.12,VWS V14.01,2013-02-20 04:37:00,
2013-02-19 23:42:00,17.4,11.4,30.13,NW,309,6.2,9.0,77,0.00,,,0.12,VWS V14.01,2013-02-20 04:42:00,
2013-02-19 23:47:00,17.2,11.2,30.14,NW,321,6.2,13.0,77,0.00,,,0.12,VWS V14.01,2013-02-20 04:47:00,
2013-02-19 23:52:00,17.0,10.8,30.14,WNW,298,5.2,10.0,76,0.00,,,0.12,VWS V14.01,2013-02-20 04:52:00,
2013-02-19 23:57:00,16.9,10.7,30.14,NNW,338,6.2,13.0,76,0.00,,,0.12,VWS V14.01,2013-02-20 04:57:00,